createdAt,value
2022-10-07T00:00:52.027Z,75.20
2022-10-07T00:03:20.273Z,75.20
2022-10-07T00:05:47.042Z,75.20
2022-10-07T00:08:13.974Z,75.20
2022-10-07T00:10:42.588Z,75.30
2022-10-07T00:13:11.983Z,75.40
2022-10-07T00:15:38.757Z,75.60
2022-10-07T00:18:05.388Z,75.70
2022-10-07T00:20:39.754Z,75.60
2022-10-07T00:23:07.793Z,75.70
2022-10-07T00:25:37.778Z,75.80
2022-10-07T00:28:05.157Z,75.70
2022-10-07T00:30:31.936Z,75.70
2022-10-07T00:32:58.599Z,75.70
2022-10-07T00:35:25.145Z,75.90
2022-10-07T00:37:51.697Z,76.00
2022-10-07T00:40:18.281Z,76.30
2022-10-07T00:42:44.831Z,76.30
2022-10-07T00:45:16.724Z,76.40
2022-10-07T00:47:48.350Z,76.30
2022-10-07T00:50:20.555Z,76.40
2022-10-07T00:52:53.705Z,76.40
2022-10-07T00:55:25.988Z,76.60
2022-10-07T00:57:57.174Z,76.70
2022-10-07T01:00:24.093Z,76.60
2022-10-07T01:02:52.006Z,76.60
2022-10-07T01:05:19.804Z,76.80
2022-10-07T01:07:48.435Z,76.70
2022-10-07T01:10:19.866Z,76.90
2022-10-07T01:13:09.943Z,77.10
2022-10-07T01:15:41.792Z,77.10
2022-10-07T01:18:18.224Z,77.30
2022-10-07T01:21:06.106Z,77.10
2022-10-07T01:23:59.567Z,77.30
2022-10-07T01:27:11.167Z,77.20
2022-10-07T01:29:43.566Z,77.70
2022-10-07T01:32:19.323Z,77.60
2022-10-07T01:34:48.617Z,77.80
2022-10-07T01:37:17.408Z,77.90
2022-10-07T01:39:51.012Z,77.60
2022-10-07T01:42:19.795Z,77.60
2022-10-07T01:44:49.678Z,77.60
2022-10-07T01:47:16.989Z,77.60
2022-10-07T01:49:43.555Z,77.50
2022-10-07T01:52:18.407Z,77.70
2022-10-07T01:55:12.636Z,77.70
2022-10-07T01:58:02.360Z,78.40
2022-10-07T02:00:29.266Z,78.20
2022-10-07T02:03:35.339Z,78.20
2022-10-07T02:06:14.387Z,78.10
2022-10-07T02:08:46.391Z,78.10
2022-10-07T02:11:21.146Z,78.20
2022-10-07T02:13:57.851Z,78.00
2022-10-07T02:16:47.076Z,78.30
2022-10-07T02:19:22.855Z,78.00
2022-10-07T02:21:52.881Z,78.00
2022-10-07T02:24:23.030Z,78.20
2022-10-07T02:26:51.127Z,78.40
2022-10-07T02:29:20.763Z,78.40
2022-10-07T02:31:49.044Z,78.50
2022-10-07T02:34:21.431Z,78.40
2022-10-07T02:36:52.552Z,78.50
2022-10-07T02:39:19.154Z,79.10
2022-10-07T02:42:06.560Z,78.90
2022-10-07T02:44:53.169Z,78.90
2022-10-07T02:47:31.713Z,79.20
2022-10-07T02:50:01.269Z,79.90
2022-10-07T02:52:32.963Z,79.90
2022-10-07T02:55:07.329Z,80.00
2022-10-07T02:57:38.025Z,80.10
2022-10-07T03:00:10.889Z,80.30
2022-10-07T03:02:50.982Z,80.60
2022-10-07T03:05:22.377Z,80.30
2022-10-07T03:07:52.701Z,80.00
2022-10-07T03:10:19.603Z,80.60
2022-10-07T03:12:46.155Z,80.40
2022-10-07T03:15:13.553Z,80.00
2022-10-07T03:17:41.015Z,79.90
2022-10-07T03:20:09.070Z,79.80
2022-10-07T03:22:36.181Z,79.70
2022-10-07T03:25:02.819Z,80.00
2022-10-07T03:27:29.364Z,80.20
2022-10-07T03:29:58.378Z,80.70
2022-10-07T03:32:27.135Z,80.60
2022-10-07T03:34:54.840Z,80.60
2022-10-07T03:37:22.431Z,80.60
2022-10-07T03:39:49.549Z,80.30
2022-10-07T03:42:16.527Z,80.20
2022-10-07T03:44:43.140Z,80.70
2022-10-07T03:47:10.869Z,80.50
2022-10-07T03:49:39.015Z,80.90
2022-10-07T03:52:06.507Z,81.10
2022-10-07T03:54:34.120Z,81.70
2022-10-07T03:57:00.953Z,81.60
2022-10-07T03:59:27.897Z,81.70
2022-10-07T04:01:54.605Z,82.00
2022-10-07T04:04:21.183Z,82.10
2022-10-07T04:06:47.768Z,82.40
2022-10-07T04:09:14.800Z,82.00
2022-10-07T04:11:41.915Z,82.30
2022-10-07T04:14:08.745Z,82.00
2022-10-07T04:16:38.078Z,82.10
2022-10-07T04:19:05.913Z,82.10
2022-10-07T04:21:33.374Z,82.40
2022-10-07T04:24:00.013Z,82.20
2022-10-07T04:26:26.556Z,82.40
2022-10-07T04:28:53.120Z,82.40
2022-10-07T04:31:19.848Z,82.40
2022-10-07T04:33:46.607Z,82.80
2022-10-07T04:36:13.944Z,82.80
2022-10-07T04:38:42.506Z,82.50
2022-10-07T04:41:09.140Z,83.20
2022-10-07T04:43:36.060Z,83.80
2022-10-07T04:46:07.620Z,83.80
2022-10-07T04:48:34.532Z,83.10
2022-10-07T04:51:05.887Z,83.60
2022-10-07T04:53:32.550Z,83.20
2022-10-07T04:56:00.427Z,84.00
2022-10-07T04:58:28.343Z,83.90
2022-10-07T05:00:56.387Z,83.70
2022-10-07T05:03:25.373Z,83.20
2022-10-07T05:05:54.902Z,83.40
2022-10-07T05:08:24.390Z,83.70
2022-10-07T05:10:58.616Z,84.80
2022-10-07T05:13:26.248Z,84.20
2022-10-07T05:16:01.458Z,84.30
2022-10-07T05:18:29.400Z,84.50
2022-10-07T05:20:55.990Z,84.00
2022-10-07T05:23:28.390Z,84.10
2022-10-07T05:26:00.299Z,83.90
2022-10-07T05:28:27.138Z,83.90
2022-10-07T05:31:11.529Z,83.80
2022-10-07T05:33:38.821Z,84.00
2022-10-07T05:36:07.864Z,84.20
2022-10-07T05:38:34.662Z,84.70
2022-10-07T05:41:04.043Z,84.70
2022-10-07T05:43:33.412Z,84.30
2022-10-07T05:46:02.167Z,84.70
2022-10-07T05:48:31.070Z,85.00
2022-10-07T05:50:59.632Z,84.40
2022-10-07T05:53:28.175Z,84.20
2022-10-07T05:55:55.315Z,84.10
2022-10-07T05:58:22.754Z,84.30
2022-10-07T06:00:54.231Z,83.80
2022-10-07T06:03:22.315Z,83.70
2022-10-07T06:05:50.902Z,84.30
2022-10-07T06:08:19.400Z,84.30
2022-10-07T06:11:07.975Z,84.20
2022-10-07T06:13:35.901Z,84.40
2022-10-07T06:16:09.670Z,84.50
2022-10-07T06:18:36.633Z,84.50
2022-10-07T06:21:03.543Z,84.50
2022-10-07T06:23:30.478Z,84.30
2022-10-07T06:26:01.756Z,84.70
2022-10-07T06:28:39.554Z,84.30
2022-10-07T06:31:11.691Z,84.20
2022-10-07T06:33:38.723Z,84.30
2022-10-07T06:36:11.590Z,84.20
2022-10-07T06:38:38.556Z,84.20
2022-10-07T06:41:05.946Z,84.20
2022-10-07T06:43:34.118Z,84.60
2022-10-07T06:46:03.624Z,84.90
2022-10-07T06:48:32.989Z,84.60
2022-10-07T06:51:03.285Z,84.50
2022-10-07T06:53:30.358Z,84.50
2022-10-07T06:56:01.683Z,84.20
2022-10-07T06:58:28.686Z,84.20
2022-10-07T07:00:56.361Z,84.40
2022-10-07T07:03:23.815Z,84.20
2022-10-07T07:05:55.047Z,84.80
2022-10-07T07:08:24.210Z,83.80
2022-10-07T07:10:50.815Z,83.80
2022-10-07T07:13:17.974Z,84.10
2022-10-07T07:15:57.759Z,84.70
2022-10-07T07:18:25.011Z,83.50
2022-10-07T07:20:51.743Z,83.90
2022-10-07T07:23:18.409Z,83.90
2022-10-07T07:25:46.292Z,83.70
2022-10-07T07:28:15.223Z,83.70
2022-10-07T07:30:42.371Z,82.90
2022-10-07T07:33:09.410Z,82.90
2022-10-07T07:35:39.827Z,83.20
2022-10-07T07:38:06.550Z,83.00
2022-10-07T07:40:36.603Z,82.80
2022-10-07T07:43:03.751Z,82.60
2022-10-07T07:45:32.909Z,82.90
2022-10-07T07:48:00.316Z,82.80
2022-10-07T07:50:27.381Z,82.30
2022-10-07T07:52:57.366Z,82.20
2022-10-07T07:55:24.540Z,80.90
2022-10-07T07:57:51.113Z,80.80
2022-10-07T08:00:18.884Z,81.50
2022-10-07T08:02:45.812Z,81.50
2022-10-07T08:05:12.435Z,79.80
2022-10-07T08:07:39.881Z,79.50
2022-10-07T08:10:07.000Z,79.80
2022-10-07T08:12:33.886Z,80.00
2022-10-07T08:15:00.448Z,79.90
2022-10-07T08:17:27.039Z,79.30
2022-10-07T08:19:55.195Z,78.90
2022-10-07T08:22:21.974Z,78.90
2022-10-07T08:24:48.867Z,78.90
2022-10-07T08:27:15.454Z,79.30
2022-10-07T08:29:42.095Z,79.70
2022-10-07T08:32:08.679Z,79.00
2022-10-07T08:34:36.407Z,78.50
2022-10-07T08:37:03.072Z,75.10
2022-10-07T08:39:31.009Z,77.90
2022-10-07T08:42:13.021Z,76.60
2022-10-07T08:44:42.713Z,76.10
2022-10-07T08:47:26.013Z,75.80
2022-10-07T08:50:07.813Z,75.90
2022-10-07T08:52:40.511Z,73.80
2022-10-07T08:55:27.033Z,74.50
2022-10-07T08:58:22.138Z,74.50
2022-10-07T09:00:51.896Z,72.80
2022-10-07T09:03:47.087Z,73.20
2022-10-07T09:06:19.093Z,71.40
2022-10-07T09:08:52.062Z,72.60
2022-10-07T09:11:25.607Z,72.60
2022-10-07T09:14:18.353Z,71.40
2022-10-07T09:16:47.459Z,71.90
2022-10-07T09:19:26.160Z,71.00
2022-10-07T09:21:56.079Z,71.10
2022-10-07T09:24:29.040Z,69.20
2022-10-07T09:26:58.781Z,70.40
2022-10-07T09:29:28.761Z,70.10
2022-10-07T09:31:56.885Z,69.80
2022-10-07T09:34:29.020Z,69.30
2022-10-07T09:37:12.899Z,70.20
2022-10-07T09:39:40.508Z,70.40
2022-10-07T09:42:09.938Z,70.00
2022-10-07T09:44:39.988Z,70.90
2022-10-07T09:47:24.832Z,71.00
2022-10-07T09:49:59.558Z,71.30
2022-10-07T09:52:28.503Z,71.30
2022-10-07T09:54:58.059Z,71.30
2022-10-07T09:57:31.019Z,71.00
2022-10-07T10:00:12.869Z,70.80
2022-10-07T10:02:40.740Z,70.80
2022-10-07T10:05:29.676Z,70.90
2022-10-07T10:08:03.309Z,70.90
2022-10-07T10:10:32.501Z,71.20
2022-10-07T10:13:01.082Z,71.20
2022-10-07T10:15:44.376Z,70.50
2022-10-07T10:18:29.630Z,71.40
2022-10-07T10:20:56.808Z,69.40
2022-10-07T10:23:36.840Z,69.40
2022-10-07T10:26:32.788Z,67.50
2022-10-07T10:29:26.433Z,68.70
2022-10-07T10:32:39.269Z,68.30
2022-10-07T10:35:09.624Z,67.50
2022-10-07T10:37:57.891Z,67.60
2022-10-07T10:40:33.975Z,67.50
2022-10-07T10:43:43.163Z,67.30
2022-10-07T10:46:25.691Z,66.90
2022-10-07T10:49:10.992Z,65.90
2022-10-07T10:51:48.964Z,66.90
2022-10-07T10:54:28.043Z,67.20
2022-10-07T10:57:37.476Z,65.70
2022-10-07T11:00:17.989Z,66.20
2022-10-07T11:03:08.303Z,65.60
2022-10-07T11:05:38.436Z,66.30
2022-10-07T11:08:26.481Z,66.60
2022-10-07T11:11:06.839Z,66.50
2022-10-07T11:13:50.335Z,65.80
2022-10-07T11:16:38.420Z,66.10
2022-10-07T11:19:13.703Z,65.80
2022-10-07T11:21:51.246Z,65.40
2022-10-07T11:24:36.631Z,65.90
2022-10-07T11:27:14.882Z,66.00
2022-10-07T11:29:56.448Z,66.00
2022-10-07T11:32:59.406Z,66.20
2022-10-07T11:35:36.614Z,66.30
2022-10-07T11:38:14.837Z,66.60
2022-10-07T11:40:50.979Z,66.10
2022-10-07T11:43:45.073Z,65.50
2022-10-07T11:46:29.944Z,65.40
2022-10-07T11:49:05.197Z,64.90
2022-10-07T11:51:39.270Z,65.30
2022-10-07T11:54:08.996Z,65.00
2022-10-07T11:56:45.664Z,65.30
2022-10-07T11:59:31.667Z,66.10
2022-10-07T12:01:58.392Z,64.50
2022-10-07T12:04:30.914Z,64.20
2022-10-07T12:07:35.048Z,64.80
2022-10-07T12:10:07.748Z,65.00
2022-10-07T12:12:46.791Z,63.80
2022-10-07T12:15:44.750Z,64.00
2022-10-07T12:18:11.263Z,64.40
2022-10-07T12:20:50.072Z,62.90
2022-10-07T12:23:19.342Z,64.60
2022-10-07T12:25:47.632Z,63.80
2022-10-07T12:28:28.495Z,64.00
2022-10-07T12:31:01.343Z,63.60
2022-10-07T12:33:52.399Z,63.20
2022-10-07T12:36:19.000Z,63.10
2022-10-07T12:39:09.699Z,63.50
2022-10-07T12:41:39.683Z,63.40
2022-10-07T12:44:41.408Z,63.70
2022-10-07T12:47:18.291Z,63.80
2022-10-07T12:50:10.631Z,63.90
2022-10-07T12:52:52.860Z,64.00
2022-10-07T12:55:33.180Z,64.00
2022-10-07T12:58:20.720Z,64.20
2022-10-07T13:01:23.857Z,63.50
2022-10-07T13:04:08.902Z,63.80
2022-10-07T13:07:08.622Z,64.20
2022-10-07T13:09:47.017Z,64.10
2022-10-07T13:12:31.824Z,64.00
2022-10-07T13:15:11.936Z,62.90
2022-10-07T13:17:56.833Z,63.20
2022-10-07T13:20:36.644Z,63.00
2022-10-07T13:23:16.738Z,63.50
2022-10-07T13:25:53.105Z,63.10
2022-10-07T13:28:25.611Z,63.30
2022-10-07T13:30:53.177Z,63.30
2022-10-07T13:33:22.856Z,63.50
2022-10-07T13:35:51.173Z,63.00
2022-10-07T13:38:28.424Z,63.20
2022-10-07T13:41:02.028Z,63.60
2022-10-07T13:43:29.873Z,63.60
2022-10-07T13:45:58.075Z,63.80
2022-10-07T13:48:27.952Z,64.00
2022-10-07T13:50:58.451Z,64.20
2022-10-07T13:53:31.886Z,64.20
2022-10-07T13:56:07.595Z,64.50
2022-10-07T13:58:34.905Z,64.20
2022-10-07T14:01:05.022Z,64.30
2022-10-07T14:03:32.081Z,64.20
2022-10-07T14:05:58.720Z,63.80
2022-10-07T14:08:29.634Z,63.70
2022-10-07T14:11:16.133Z,63.30
2022-10-07T14:13:43.544Z,63.20
2022-10-07T14:16:20.716Z,63.60
2022-10-07T14:18:47.656Z,63.50
2022-10-07T14:21:17.046Z,63.10
2022-10-07T14:23:46.805Z,63.00
2022-10-07T14:26:15.032Z,62.70
2022-10-07T14:28:42.910Z,63.30
2022-10-07T14:31:27.927Z,63.10
2022-10-07T14:34:32.554Z,62.80
2022-10-07T14:37:10.495Z,62.70
2022-10-07T14:39:47.535Z,62.70
2022-10-07T14:42:24.196Z,63.10
2022-10-07T14:44:53.103Z,63.10
2022-10-07T14:47:24.700Z,62.80
2022-10-07T14:49:54.870Z,62.60
2022-10-07T14:52:28.227Z,62.50
2022-10-07T14:55:00.421Z,62.60
2022-10-07T14:57:27.364Z,62.60
2022-10-07T14:59:54.263Z,62.60
2022-10-07T15:02:21.144Z,62.00
2022-10-07T15:04:48.226Z,62.50
2022-10-07T15:07:16.273Z,62.70
2022-10-07T15:09:45.060Z,62.70
2022-10-07T15:12:13.709Z,62.90
2022-10-07T15:14:40.399Z,62.90
2022-10-07T15:17:07.554Z,62.90
2022-10-07T15:19:34.629Z,63.10
2022-10-07T15:22:01.267Z,63.20
2022-10-07T15:24:29.081Z,63.10
2022-10-07T15:26:55.839Z,63.10
2022-10-07T15:29:22.387Z,63.10
2022-10-07T15:31:50.956Z,63.30
2022-10-07T15:34:17.542Z,63.30
2022-10-07T15:36:44.148Z,63.20
2022-10-07T15:39:10.871Z,63.40
2022-10-07T15:41:40.041Z,63.70
2022-10-07T15:44:15.967Z,64.60
2022-10-07T15:46:47.463Z,63.80
2022-10-07T15:49:16.896Z,63.80
2022-10-07T15:51:43.661Z,64.10
2022-10-07T15:54:10.937Z,64.10
2022-10-07T15:56:37.505Z,64.00
2022-10-07T15:59:04.415Z,64.10
2022-10-07T16:01:34.021Z,64.20
2022-10-07T16:04:02.231Z,65.20
2022-10-07T16:06:32.374Z,64.20
2022-10-07T16:09:00.151Z,64.10
2022-10-07T16:11:28.329Z,64.20
2022-10-07T16:13:54.997Z,64.30
2022-10-07T16:16:26.556Z,64.40
2022-10-07T16:18:53.897Z,64.60
2022-10-07T16:21:22.873Z,64.60
2022-10-07T16:23:51.634Z,64.80
2022-10-07T16:26:21.237Z,64.90
2022-10-07T16:29:09.717Z,65.30
2022-10-07T16:31:42.445Z,65.60
2022-10-07T16:34:11.005Z,65.50
2022-10-07T16:36:42.091Z,65.50
2022-10-07T16:39:11.600Z,65.50
2022-10-07T16:41:41.469Z,65.90
2022-10-07T16:44:08.487Z,65.80
2022-10-07T16:46:35.732Z,65.90
2022-10-07T16:49:05.730Z,65.90
2022-10-07T16:51:36.050Z,65.70
2022-10-07T16:54:06.479Z,65.80
2022-10-07T16:56:35.599Z,66.00
2022-10-07T16:59:04.643Z,66.00
2022-10-07T17:01:31.909Z,66.20
2022-10-07T17:04:00.106Z,66.50
2022-10-07T17:06:29.324Z,66.40
2022-10-07T17:08:56.892Z,66.50
2022-10-07T17:11:30.102Z,66.60
2022-10-07T17:14:11.772Z,66.50
2022-10-07T17:16:42.046Z,66.60
2022-10-07T17:19:18.427Z,66.90
2022-10-07T17:21:46.231Z,66.70
2022-10-07T17:24:13.303Z,66.80
2022-10-07T17:26:41.158Z,66.70
2022-10-07T17:29:11.839Z,66.80
2022-10-07T17:31:41.604Z,66.90
2022-10-07T17:34:08.955Z,67.10
2022-10-07T17:36:35.738Z,67.10
2022-10-07T17:39:02.585Z,67.20
2022-10-07T17:41:31.867Z,67.30
2022-10-07T17:44:00.575Z,67.50
2022-10-07T17:46:29.770Z,67.30
2022-10-07T17:48:59.076Z,68.30
2022-10-07T17:51:28.908Z,67.50
2022-10-07T17:53:57.055Z,67.50
2022-10-07T17:56:23.619Z,67.30
2022-10-07T17:58:50.458Z,67.30
2022-10-07T18:01:19.452Z,67.50
2022-10-07T18:04:00.570Z,67.60
2022-10-07T18:06:30.222Z,67.60
2022-10-07T18:09:02.108Z,67.70
2022-10-07T18:11:49.266Z,67.80
2022-10-07T18:14:34.563Z,67.90
2022-10-07T18:17:01.451Z,67.90
2022-10-07T18:19:29.328Z,67.90
2022-10-07T18:21:56.372Z,67.90
2022-10-07T18:24:28.558Z,67.80
2022-10-07T18:26:59.508Z,67.70
2022-10-07T18:29:27.116Z,67.80
2022-10-07T18:31:53.959Z,68.20
2022-10-07T18:34:20.571Z,68.30
2022-10-07T18:36:47.261Z,68.20
2022-10-07T18:39:13.948Z,68.10
2022-10-07T18:41:40.643Z,68.00
2022-10-07T18:44:07.355Z,68.30
2022-10-07T18:46:33.990Z,68.30
2022-10-07T18:49:00.704Z,68.50
2022-10-07T18:51:27.325Z,68.50
2022-10-07T18:53:53.913Z,68.40
2022-10-07T18:56:22.370Z,68.40
2022-10-07T18:58:52.319Z,68.30
2022-10-07T19:01:20.311Z,68.40
2022-10-07T19:03:48.827Z,68.40
2022-10-07T19:06:18.483Z,68.30
2022-10-07T19:08:46.004Z,68.60
2022-10-07T19:11:17.772Z,68.80
2022-10-07T19:13:48.251Z,68.70
2022-10-07T19:16:17.092Z,69.10
2022-10-07T19:18:44.210Z,69.00
2022-10-07T19:21:11.533Z,68.90
2022-10-07T19:23:39.439Z,69.10
2022-10-07T19:26:07.011Z,69.10
2022-10-07T19:28:36.225Z,69.40
2022-10-07T19:31:23.938Z,69.30
2022-10-07T19:33:54.996Z,69.30
2022-10-07T19:36:23.076Z,69.60
2022-10-07T19:38:53.406Z,69.50
2022-10-07T19:41:25.332Z,69.80
2022-10-07T19:43:52.233Z,69.60
2022-10-07T19:46:20.904Z,69.60
2022-10-07T19:48:48.092Z,69.50
2022-10-07T19:51:17.517Z,69.50
2022-10-07T19:53:47.027Z,69.60
2022-10-07T19:56:21.024Z,69.70
2022-10-07T19:58:55.947Z,69.50
2022-10-07T20:01:28.137Z,69.60
2022-10-07T20:04:00.005Z,69.70
2022-10-07T20:06:27.678Z,69.60
2022-10-07T20:08:55.214Z,69.80
2022-10-07T20:11:22.579Z,69.60
2022-10-07T20:13:49.245Z,70.00
2022-10-07T20:16:25.960Z,70.00
2022-10-07T20:19:00.958Z,69.80
2022-10-07T20:21:28.607Z,69.90
2022-10-07T20:23:55.580Z,70.10
2022-10-07T20:26:27.795Z,70.10
2022-10-07T20:28:57.373Z,70.00
2022-10-07T20:31:27.951Z,70.10
2022-10-07T20:33:56.082Z,70.40
2022-10-07T20:36:25.679Z,70.20
2022-10-07T20:39:34.250Z,70.20
2022-10-07T20:42:20.115Z,70.00
2022-10-07T20:44:49.063Z,70.10
2022-10-07T20:47:16.396Z,70.10
2022-10-07T20:49:43.025Z,70.40
2022-10-07T20:52:13.831Z,70.40
2022-10-07T20:54:40.413Z,70.30
2022-10-07T20:57:07.025Z,70.40
2022-10-07T20:59:33.776Z,70.40
2022-10-07T21:02:03.832Z,70.60
2022-10-07T21:04:33.486Z,70.50
2022-10-07T21:07:01.566Z,70.40
2022-10-07T21:09:28.324Z,70.60
2022-10-07T21:11:56.551Z,70.90
2022-10-07T21:14:23.244Z,71.20
2022-10-07T21:16:49.962Z,71.30
2022-10-07T21:19:17.040Z,71.00
2022-10-07T21:21:43.912Z,71.00
2022-10-07T21:24:10.694Z,71.10
2022-10-07T21:26:37.706Z,71.40
2022-10-07T21:29:07.956Z,71.30
2022-10-07T21:31:35.572Z,71.40
2022-10-07T21:34:07.677Z,71.50
2022-10-07T21:36:49.183Z,71.80
2022-10-07T21:39:18.599Z,71.60
2022-10-07T21:41:45.182Z,71.40
2022-10-07T21:44:13.375Z,72.00
2022-10-07T21:46:42.106Z,72.00
2022-10-07T21:49:08.736Z,72.10
2022-10-07T21:51:35.680Z,72.20
2022-10-07T21:54:02.954Z,72.10
2022-10-07T21:56:30.915Z,72.20
2022-10-07T21:59:00.523Z,72.10
2022-10-07T22:01:28.059Z,71.90
2022-10-07T22:03:57.120Z,71.80
2022-10-07T22:06:44.918Z,71.90
2022-10-07T22:09:12.851Z,71.90
2022-10-07T22:11:39.696Z,72.10
2022-10-07T22:14:11.357Z,72.00
2022-10-07T22:16:39.115Z,72.10
2022-10-07T22:19:05.820Z,72.90
2022-10-07T22:21:33.544Z,72.00
2022-10-07T22:24:06.995Z,71.90
2022-10-07T22:26:38.954Z,72.10
2022-10-07T22:29:07.937Z,72.10
2022-10-07T22:31:34.787Z,72.10
2022-10-07T22:34:02.400Z,72.20
2022-10-07T22:36:29.364Z,72.40
2022-10-07T22:39:02.016Z,72.60
2022-10-07T22:41:29.321Z,72.70
2022-10-07T22:43:56.240Z,72.70
2022-10-07T22:46:27.169Z,72.90
2022-10-07T22:48:58.040Z,72.90
2022-10-07T22:51:28.158Z,72.90
2022-10-07T22:53:55.870Z,73.00
2022-10-07T22:56:24.096Z,73.00
2022-10-07T22:58:57.885Z,73.10
2022-10-07T23:01:28.442Z,73.90
2022-10-07T23:03:56.225Z,72.90
2022-10-07T23:06:22.878Z,73.10
2022-10-07T23:08:49.745Z,73.00
2022-10-07T23:11:18.543Z,73.10
2022-10-07T23:13:48.143Z,73.20
2022-10-07T23:16:17.198Z,73.80
2022-10-07T23:18:45.594Z,73.70
2022-10-07T23:21:14.956Z,73.80
2022-10-07T23:23:44.005Z,74.10
2022-10-07T23:26:13.919Z,73.90
2022-10-07T23:28:40.749Z,74.10
2022-10-07T23:31:09.769Z,74.30
2022-10-07T23:33:37.326Z,74.70
2022-10-07T23:36:08.834Z,75.70
2022-10-07T23:38:36.448Z,77.50
2022-10-07T23:41:03.065Z,76.60
2022-10-07T23:43:33.156Z,78.00
2022-10-07T23:46:00.976Z,78.70
2022-10-07T23:48:28.133Z,80.00
2022-10-07T23:50:55.169Z,78.80
2022-10-07T23:53:22.923Z,79.10
2022-10-07T23:55:52.927Z,78.20
2022-10-07T23:58:22.079Z,78.20
